createdAt,value
2018-04-24T00:01:55.365Z,101504.34
2018-04-24T00:04:23.419Z,101506.49
2018-04-24T00:06:51.786Z,101510.11
2018-04-24T00:09:20.585Z,101493.25
2018-04-24T00:11:48.780Z,101502.14
2018-04-24T00:14:16.868Z,101510.70
2018-04-24T00:16:45.298Z,101505.63
2018-04-24T00:19:13.375Z,101504.20
2018-04-24T00:21:41.458Z,101484.33
2018-04-24T00:24:09.586Z,101481.84
2018-04-24T00:26:37.708Z,101480.50
2018-04-24T00:29:05.834Z,101476.27
2018-04-24T00:31:33.910Z,101478.34
2018-04-24T00:34:02.027Z,101477.20
2018-04-24T00:36:30.108Z,101472.01
2018-04-24T00:38:59.079Z,101472.06
2018-04-24T00:41:27.141Z,101474.02
2018-04-24T00:43:55.273Z,101483.84
2018-04-24T00:46:23.328Z,101488.01
2018-04-24T00:48:51.468Z,101490.22
2018-04-24T00:51:19.558Z,101491.74
2018-04-24T00:53:47.742Z,101497.78
2018-04-24T00:56:15.852Z,101490.22
2018-04-24T00:58:48.892Z,101477.24
2018-04-24T01:01:17.317Z,101477.44
2018-04-24T01:03:45.413Z,101485.42
2018-04-24T01:06:13.498Z,101474.35
2018-04-24T01:08:42.222Z,101464.61
2018-04-24T01:11:11.208Z,101465.52
2018-04-24T01:13:39.333Z,101472.49
2018-04-24T01:16:07.405Z,101476.63
2018-04-24T01:18:35.479Z,101475.91
2018-04-24T01:21:04.443Z,101470.59
2018-04-24T01:23:32.531Z,101459.53
2018-04-24T01:26:00.634Z,101453.61
2018-04-24T01:28:28.730Z,101456.02
2018-04-24T01:30:56.874Z,101466.63
2018-04-24T01:33:25.772Z,101460.03
2018-04-24T01:35:53.946Z,101464.88
2018-04-24T01:38:22.038Z,101469.93
2018-04-24T01:40:50.128Z,101458.02
2018-04-24T01:56:18.235Z,101444.42
2018-04-24T01:58:46.340Z,101446.98
2018-04-24T02:01:14.458Z,101452.04
2018-04-24T02:03:42.587Z,101445.93
2018-04-24T02:06:11.743Z,101442.95
2018-04-24T02:08:41.041Z,101446.30
2018-04-24T02:11:09.119Z,101449.75
2018-04-24T02:13:37.208Z,101454.25
2018-04-24T02:16:05.303Z,101455.04
2018-04-24T02:18:33.713Z,101461.73
2018-04-24T02:21:01.801Z,101459.23
2018-04-24T02:23:30.243Z,101452.28
2018-04-24T02:25:59.204Z,101456.77
2018-04-24T02:38:12.330Z,101452.75
2018-04-24T02:40:40.432Z,101449.56
2018-04-24T02:43:08.552Z,101451.18
2018-04-24T02:45:36.706Z,101448.91
2018-04-24T02:48:06.560Z,101461.52
2018-04-24T02:50:34.729Z,101457.39
2018-04-24T02:53:02.803Z,101461.66
2018-04-24T02:55:31.667Z,101467.28
2018-04-24T02:57:59.809Z,101466.67
2018-04-24T03:00:27.887Z,101460.93
2018-04-24T03:02:55.971Z,101467.54
2018-04-24T03:05:24.080Z,101465.88
2018-04-24T03:07:52.207Z,101469.58
2018-04-24T03:10:20.290Z,101468.58
2018-04-24T03:12:48.451Z,101476.50
2018-04-24T03:15:17.235Z,101480.87
2018-04-24T03:17:45.637Z,101470.75
2018-04-24T03:20:14.478Z,101471.11
2018-04-24T03:22:48.024Z,101467.33
2018-04-24T03:25:16.135Z,101467.42
2018-04-24T03:27:44.214Z,101465.25
2018-04-24T03:30:14.041Z,101468.92
2018-04-24T03:32:42.160Z,101466.33
2018-04-24T03:35:10.295Z,101474.37
2018-04-24T03:37:43.982Z,101464.36
2018-04-24T03:40:12.086Z,101464.02
2018-04-24T03:42:40.190Z,101455.64
2018-04-24T03:45:08.269Z,101453.98
2018-04-24T03:47:36.732Z,101454.03
2018-04-24T03:50:04.803Z,101455.11
2018-04-24T03:52:32.890Z,101453.98
2018-04-24T03:55:00.987Z,101456.59
2018-04-24T03:57:29.104Z,101455.92
2018-04-24T03:59:57.213Z,101457.30
2018-04-24T04:02:25.307Z,101454.14
2018-04-24T04:04:54.252Z,101444.91
2018-04-24T04:07:23.034Z,101446.27
2018-04-24T04:09:51.187Z,101456.55
2018-04-24T04:12:19.207Z,101450.03
2018-04-24T04:14:48.043Z,101451.98
2018-04-24T04:17:27.967Z,101454.52
2018-04-24T04:20:08.004Z,101457.21
2018-04-24T04:22:47.881Z,101449.64
2018-04-24T04:25:15.973Z,101462.08
2018-04-24T04:27:44.880Z,101458.16
2018-04-24T04:30:12.983Z,101466.19
2018-04-24T04:32:41.324Z,101472.52
2018-04-24T04:35:09.332Z,101463.75
2018-04-24T04:37:37.420Z,101472.20
2018-04-24T04:40:05.550Z,101464.37
2018-04-24T04:42:33.643Z,101467.45
2018-04-24T04:45:01.725Z,101467.94
2018-04-24T04:47:29.875Z,101466.34
2018-04-24T04:50:03.511Z,101466.16
2018-04-24T04:52:37.054Z,101466.97
2018-04-24T04:55:05.422Z,101464.36
2018-04-24T04:57:33.528Z,101472.75
2018-04-24T05:00:02.128Z,101464.84
2018-04-24T05:02:30.247Z,101474.81
2018-04-24T05:04:58.353Z,101472.59
2018-04-24T05:07:26.449Z,101471.41
2018-04-24T05:09:54.535Z,101474.14
2018-04-24T05:12:22.635Z,101468.49
2018-04-24T05:14:50.714Z,101481.16
2018-04-24T05:30:18.856Z,101475.88
2018-04-24T05:32:46.947Z,101473.44
2018-04-24T05:48:15.045Z,101471.99
2018-04-24T05:50:43.140Z,101477.53
2018-04-24T05:53:11.224Z,101486.92
2018-04-24T06:08:44.338Z,101495.66
2018-04-24T06:11:12.466Z,101502.45
2018-04-24T06:13:40.550Z,101498.73
2018-04-24T06:16:08.675Z,101502.79
2018-04-24T06:18:36.758Z,101508.16
2018-04-24T06:21:10.404Z,101512.86
2018-04-24T06:23:38.521Z,101509.89
2018-04-24T06:26:06.608Z,101510.88
2018-04-24T06:28:34.827Z,101503.50
2018-04-24T06:31:02.864Z,101509.60
2018-04-24T06:33:30.952Z,101513.09
2018-04-24T06:35:59.416Z,101512.18
2018-04-24T06:38:27.471Z,101511.84
2018-04-24T06:53:55.616Z,101506.27
2018-04-24T06:56:23.697Z,101499.27
2018-04-24T07:11:47.124Z,101505.53
2018-04-24T07:14:15.210Z,101534.27
2018-04-24T07:16:48.262Z,101532.48
2018-04-24T07:19:16.339Z,101551.47
2018-04-24T07:21:44.731Z,101551.02
2018-04-24T07:24:12.838Z,101547.70
2018-04-24T07:26:41.404Z,101547.64
2018-04-24T07:29:09.508Z,101545.97
2018-04-24T07:31:37.646Z,101542.03
2018-04-24T07:34:05.716Z,101549.13
2018-04-24T07:36:33.838Z,101561.80
2018-04-24T07:39:01.932Z,101563.78
2018-04-24T07:41:30.285Z,101563.00
2018-04-24T07:43:58.798Z,101562.87
2018-04-24T07:46:32.185Z,101555.79
2018-04-24T07:49:00.266Z,101550.53
2018-04-24T07:51:29.219Z,101556.75
2018-04-24T07:53:57.327Z,101564.08
2018-04-24T07:56:25.393Z,101569.06
2018-04-24T07:58:53.792Z,101558.06
2018-04-24T08:01:21.971Z,101565.53
2018-04-24T08:03:50.036Z,101584.02
2018-04-24T08:06:18.133Z,101581.84
2018-04-24T08:08:46.279Z,101568.98
2018-04-24T08:11:14.344Z,101577.88
2018-04-24T08:13:42.422Z,101569.55
2018-04-24T08:16:10.512Z,101569.02
2018-04-24T08:18:38.634Z,101577.73
2018-04-24T08:34:06.970Z,101574.98
2018-04-24T08:36:35.090Z,101567.55
2018-04-24T08:39:03.203Z,101579.16
2018-04-24T08:41:31.314Z,101587.81
2018-04-24T08:43:59.926Z,101585.21
2018-04-24T08:46:28.968Z,101593.25
2018-04-24T08:48:57.044Z,101582.02
2018-04-24T08:51:30.091Z,101582.20
2018-04-24T08:54:00.621Z,101589.27
2018-04-24T08:56:28.720Z,101588.93
2018-04-24T08:58:57.037Z,101588.53
2018-04-24T09:01:25.115Z,101594.09
2018-04-24T09:03:54.110Z,101595.87
2018-04-24T09:06:22.269Z,101585.81
2018-04-24T09:08:50.706Z,101590.66
2018-04-24T09:11:18.780Z,101584.41
2018-04-24T09:13:46.997Z,101580.47
2018-04-24T09:16:20.503Z,101583.86
2018-04-24T09:18:48.606Z,101578.23
2018-04-24T09:21:16.694Z,101567.62
2018-04-24T09:23:45.098Z,101575.06
2018-04-24T09:26:13.223Z,101577.84
2018-04-24T09:28:41.821Z,101574.45
2018-04-24T09:31:09.896Z,101582.23
2018-04-24T09:33:38.113Z,101580.05
2018-04-24T09:36:06.106Z,101579.21
2018-04-24T09:38:40.952Z,101583.09
2018-04-24T09:41:09.035Z,101587.79
2018-04-24T09:43:37.906Z,101581.54
2018-04-24T09:46:06.071Z,101587.55
2018-04-24T09:48:34.124Z,101579.20
2018-04-24T09:51:02.238Z,101574.50
2018-04-24T09:53:30.462Z,101564.14
2018-04-24T09:55:58.533Z,101576.84
2018-04-24T09:58:26.654Z,101573.79
2018-04-24T10:00:54.762Z,101571.68
2018-04-24T10:03:22.853Z,101576.77
2018-04-24T10:05:50.934Z,101589.80
2018-04-24T10:08:19.062Z,101583.02
2018-04-24T10:10:52.702Z,101585.13
2018-04-24T10:13:20.801Z,101594.83
2018-04-24T10:15:48.888Z,101593.66
2018-04-24T10:18:16.971Z,101611.24
2018-04-24T10:20:45.088Z,101613.71
2018-04-24T10:23:13.167Z,101608.84
2018-04-24T10:25:41.266Z,101615.78
2018-04-24T10:28:09.373Z,101621.62
2018-04-24T10:30:37.469Z,101615.12
2018-04-24T10:33:05.712Z,101612.95
2018-04-24T10:35:33.849Z,101612.81
2018-04-24T10:38:01.964Z,101621.91
2018-04-24T10:40:30.084Z,101618.41
2018-04-24T10:42:58.402Z,101610.50
2018-04-24T10:45:27.350Z,101614.64
2018-04-24T10:47:55.431Z,101614.09
2018-04-24T10:50:23.529Z,101620.34
2018-04-24T10:52:51.628Z,101620.86
2018-04-24T10:55:25.119Z,101616.73
2018-04-24T10:57:53.232Z,101619.71
2018-04-24T11:00:21.315Z,101613.75
2018-04-24T11:02:49.406Z,101614.95
2018-04-24T11:05:18.324Z,101614.30
2018-04-24T11:07:46.383Z,101607.98
2018-04-24T11:10:15.283Z,101605.97
2018-04-24T11:12:43.391Z,101608.80
2018-04-24T11:24:56.499Z,101589.78
2018-04-24T11:27:30.048Z,101590.70
2018-04-24T11:29:58.187Z,101594.45
2018-04-24T11:32:26.775Z,101596.95
2018-04-24T11:34:55.095Z,101600.53
2018-04-24T11:37:28.785Z,101598.52
2018-04-24T11:39:57.605Z,101594.38
2018-04-24T11:42:26.017Z,101579.41
2018-04-24T11:44:54.104Z,101574.47
2018-04-24T11:47:22.795Z,101573.41
2018-04-24T11:49:50.878Z,101568.98
2018-04-24T11:52:19.734Z,101573.94
2018-04-24T11:54:47.895Z,101572.89
2018-04-24T11:57:15.894Z,101577.05
2018-04-24T11:59:44.366Z,101577.22
2018-04-24T12:02:12.440Z,101575.28
2018-04-24T12:04:41.234Z,101570.89
2018-04-24T12:07:10.336Z,101564.27
2018-04-24T12:09:44.059Z,101565.86
2018-04-24T12:12:12.171Z,101568.53
2018-04-24T12:27:45.863Z,101554.95
2018-04-24T12:30:13.955Z,101557.36
2018-04-24T12:32:42.076Z,101568.13
2018-04-24T12:35:10.253Z,101561.81
2018-04-24T12:37:38.346Z,101561.06
2018-04-24T12:40:08.183Z,101559.43
2018-04-24T12:42:41.905Z,101558.45
2018-04-24T12:45:10.051Z,101565.71
2018-04-24T12:47:38.103Z,101566.75
2018-04-24T12:50:06.297Z,101557.53
2018-04-24T12:52:39.843Z,101552.88
2018-04-24T12:55:07.955Z,101536.88
2018-04-24T12:57:36.051Z,101543.80
2018-04-24T13:00:04.425Z,101541.91
2018-04-24T13:02:32.548Z,101531.39
2018-04-24T13:05:01.582Z,101522.76
2018-04-24T13:07:29.677Z,101520.25
2018-04-24T13:09:57.825Z,101518.41
2018-04-24T13:12:25.904Z,101513.15
2018-04-24T13:14:53.993Z,101530.60
2018-04-24T13:17:22.431Z,101523.70
2018-04-24T13:19:51.303Z,101522.84
2018-04-24T13:22:19.569Z,101510.81
2018-04-24T13:24:48.498Z,101510.16
2018-04-24T13:27:16.573Z,101500.53
2018-04-24T13:29:44.651Z,101492.48
2018-04-24T13:32:13.267Z,101497.40
2018-04-24T13:34:41.387Z,101502.23
2018-04-24T13:37:10.226Z,101505.00
2018-04-24T13:39:38.931Z,101507.26
2018-04-24T13:42:07.076Z,101493.22
2018-04-24T13:44:35.103Z,101490.52
2018-04-24T14:00:03.226Z,101476.42
2018-04-24T14:02:31.314Z,101473.67
2018-04-24T14:04:59.506Z,101473.78
2018-04-24T14:07:27.714Z,101471.52
2018-04-24T14:09:55.838Z,101464.44
2018-04-24T14:12:28.910Z,101465.58
2018-04-24T14:14:57.016Z,101464.72
2018-04-24T14:17:25.112Z,101461.98
2018-04-24T14:19:53.235Z,101462.09
2018-04-24T14:22:21.327Z,101462.41
2018-04-24T14:24:49.453Z,101457.11
2018-04-24T14:27:17.618Z,101460.86
2018-04-24T14:29:45.711Z,101449.25
2018-04-24T14:32:13.804Z,101443.02
2018-04-24T14:34:47.822Z,101432.30
2018-04-24T14:37:21.521Z,101437.62
2018-04-24T14:39:49.630Z,101426.66
2018-04-24T14:42:22.673Z,101435.09
2018-04-24T14:44:51.201Z,101417.54
2018-04-24T14:47:20.099Z,101421.16
2018-04-24T14:49:48.194Z,101421.01
2018-04-24T14:52:16.953Z,101418.98
2018-04-24T14:54:45.058Z,101414.23
2018-04-24T14:57:13.893Z,101412.53
2018-04-24T14:59:42.400Z,101404.80
2018-04-24T15:02:10.472Z,101397.00
2018-04-24T15:04:38.568Z,101402.83
2018-04-24T15:07:06.757Z,101394.39
2018-04-24T15:09:35.695Z,101390.86
2018-04-24T15:12:04.113Z,101388.34
2018-04-24T15:14:32.261Z,101384.38
2018-04-24T15:17:00.365Z,101386.29
2018-04-24T15:19:29.088Z,101390.71
2018-04-24T15:21:57.209Z,101390.38
2018-04-24T15:24:25.265Z,101378.77
2018-04-24T15:26:54.272Z,101374.59
2018-04-24T15:29:22.385Z,101374.50
2018-04-24T15:31:51.271Z,101368.16
2018-04-24T15:34:19.395Z,101364.44
2018-04-24T15:36:47.779Z,101370.01
2018-04-24T15:39:15.877Z,101363.34
2018-04-24T15:41:44.044Z,101353.19
2018-04-24T15:44:12.116Z,101348.80
2018-04-24T15:46:41.184Z,101352.26
2018-04-24T15:49:09.299Z,101345.96
2018-04-24T15:51:37.457Z,101357.24
2018-04-24T15:54:05.565Z,101349.94
2018-04-24T15:56:34.646Z,101352.78
2018-04-24T15:59:03.528Z,101353.95
2018-04-24T16:01:31.677Z,101355.56
2018-04-24T16:04:00.266Z,101351.07
2018-04-24T16:06:28.350Z,101333.25
2018-04-24T16:08:56.460Z,101337.83
2018-04-24T16:11:24.668Z,101327.31
2018-04-24T16:13:52.757Z,101335.19
2018-04-24T16:16:20.885Z,101341.45
2018-04-24T16:18:49.089Z,101323.82
2018-04-24T16:21:17.172Z,101322.23
2018-04-24T16:23:45.949Z,101314.59
2018-04-24T16:26:14.023Z,101317.56
2018-04-24T16:28:42.574Z,101316.48
2018-04-24T16:31:16.231Z,101320.19
2018-04-24T16:33:44.416Z,101314.89
2018-04-24T16:36:12.429Z,101313.30
2018-04-24T16:38:40.541Z,101299.77
2018-04-24T16:41:08.646Z,101291.83
2018-04-24T16:43:37.452Z,101296.40
2018-04-24T16:46:05.557Z,101300.20
2018-04-24T16:48:39.904Z,101287.53
2018-04-24T16:51:08.647Z,101290.66
2018-04-24T16:53:36.719Z,101279.95
2018-04-24T16:56:04.878Z,101262.75
2018-04-24T16:58:32.963Z,101255.86
2018-04-24T17:01:01.079Z,101250.41
2018-04-24T17:03:29.205Z,101244.56
2018-04-24T17:05:57.317Z,101239.33
2018-04-24T17:08:25.380Z,101229.81
2018-04-24T17:10:53.484Z,101221.61
2018-04-24T17:13:21.582Z,101222.95
2018-04-24T17:15:49.732Z,101218.02
2018-04-24T17:18:17.874Z,101209.53
2018-04-24T17:20:51.023Z,101208.51
2018-04-24T17:23:19.611Z,101195.53
2018-04-24T17:25:47.708Z,101197.38
2018-04-24T17:28:15.835Z,101192.58
2018-04-24T17:30:44.012Z,101192.31
2018-04-24T17:33:12.060Z,101194.41
2018-04-24T17:35:40.204Z,101185.66
2018-04-24T17:38:13.758Z,101186.55
2018-04-24T17:40:41.867Z,101184.97
2018-04-24T17:43:09.975Z,101179.56
2018-04-24T17:45:38.069Z,101184.86
2018-04-24T17:48:06.175Z,101176.86
2018-04-24T17:50:34.275Z,101181.03
2018-04-24T17:53:02.375Z,101185.72
2018-04-24T17:55:30.471Z,101183.05
2018-04-24T17:57:58.565Z,101183.02
2018-04-24T18:00:26.659Z,101175.24
2018-04-24T18:02:54.775Z,101169.41
2018-04-24T18:05:22.876Z,101170.70
2018-04-24T18:07:50.968Z,101172.31
2018-04-24T18:10:19.080Z,101170.53
2018-04-24T18:12:47.172Z,101172.21
2018-04-24T18:15:15.260Z,101165.91
2018-04-24T18:17:43.409Z,101161.00
2018-04-24T18:20:11.503Z,101161.47
2018-04-24T18:22:39.583Z,101144.44
2018-04-24T18:25:07.692Z,101143.05
2018-04-24T18:27:36.835Z,101140.68
2018-04-24T18:30:05.162Z,101139.99
2018-04-24T18:32:33.720Z,101138.64
2018-04-24T18:35:01.826Z,101134.42
2018-04-24T18:37:29.931Z,101136.89
2018-04-24T18:39:58.375Z,101149.09
2018-04-24T18:42:26.480Z,101153.56
2018-04-24T18:57:59.576Z,101121.61
2018-04-24T19:00:27.666Z,101124.71
2018-04-24T19:02:55.800Z,101123.46
2018-04-24T19:05:23.921Z,101130.57
2018-04-24T19:07:52.082Z,101126.36
2018-04-24T19:10:20.765Z,101105.61
2018-04-24T19:12:48.875Z,101094.87
2018-04-24T19:15:16.959Z,101093.72
2018-04-24T19:17:46.762Z,101089.08
2018-04-24T19:33:14.856Z,101095.48
2018-04-24T19:35:42.957Z,101093.80
2018-04-24T19:38:11.075Z,101091.53
2018-04-24T19:40:44.936Z,101087.41
2018-04-24T19:43:12.994Z,101089.02
2018-04-24T19:45:42.215Z,101075.77
2018-04-24T19:48:16.054Z,101071.02
2018-04-24T19:50:44.151Z,101073.19
2018-04-24T19:53:12.679Z,101076.38
2018-04-24T20:08:46.182Z,101069.01
2018-04-24T20:11:14.280Z,101063.28
2018-04-24T20:13:43.153Z,101057.23
2018-04-24T20:16:11.283Z,101051.38
2018-04-24T20:18:39.386Z,101050.59
2018-04-24T20:21:07.450Z,101048.16
2018-04-24T20:23:35.562Z,101044.17
2018-04-24T20:26:03.655Z,101050.01
2018-04-24T20:28:31.738Z,101043.03
2018-04-24T20:40:44.980Z,101035.44
2018-04-24T20:43:13.114Z,101028.14
2018-04-24T20:45:41.201Z,101023.66
2018-04-24T20:48:10.771Z,101018.33
2018-04-24T20:50:38.831Z,101009.31
2018-04-24T20:53:07.202Z,101010.94
2018-04-24T20:55:35.313Z,101013.34
2018-04-24T20:58:04.309Z,101003.76
2018-04-24T21:00:32.446Z,101008.33
2018-04-24T21:03:02.147Z,101004.34
2018-04-24T21:05:30.163Z,101004.41
2018-04-24T21:07:59.060Z,100996.31
2018-04-24T21:10:27.959Z,100982.27
2018-04-24T21:12:56.047Z,100981.54
2018-04-24T21:15:24.140Z,100981.54
2018-04-24T21:30:52.250Z,100950.50
2018-04-24T21:33:21.192Z,100958.50
2018-04-24T21:35:50.198Z,100947.91
2018-04-24T21:38:23.208Z,100938.24
2018-04-24T21:40:51.309Z,100932.84
2018-04-24T21:43:19.436Z,100922.58
2018-04-24T21:45:47.538Z,100930.64
2018-04-24T21:48:16.171Z,100928.17
2018-04-24T21:50:44.262Z,100931.30
2018-04-24T21:53:12.352Z,100921.50
2018-04-24T21:55:46.416Z,100929.23
2018-04-24T21:58:14.561Z,100928.67
2018-04-24T22:00:42.631Z,100908.73
2018-04-24T22:03:11.744Z,100909.13
2018-04-24T22:05:39.837Z,100901.56
2018-04-24T22:08:07.922Z,100904.75
2018-04-24T22:10:36.015Z,100898.50
2018-04-24T22:13:04.096Z,100902.05
2018-04-24T22:15:32.172Z,100883.67
2018-04-24T22:18:00.270Z,100884.45
2018-04-24T22:20:28.834Z,100881.60
2018-04-24T22:22:57.242Z,100875.74
2018-04-24T22:25:30.730Z,100867.98
2018-04-24T22:27:59.025Z,100865.68
2018-04-24T22:30:27.091Z,100864.66
2018-04-24T22:32:55.213Z,100851.07
2018-04-24T22:35:23.266Z,100853.19
2018-04-24T22:37:51.402Z,100834.30
2018-04-24T22:40:19.490Z,100836.50
2018-04-24T22:42:47.572Z,100826.41
2018-04-24T22:45:21.093Z,100829.94
2018-04-24T22:47:49.772Z,100813.56
2018-04-24T22:50:17.852Z,100811.49
2018-04-24T22:52:45.959Z,100807.13
2018-04-24T22:55:14.037Z,100808.20
2018-04-24T22:57:42.799Z,100810.70
2018-04-24T23:00:10.907Z,100800.05
2018-04-24T23:02:39.023Z,100793.21
2018-04-24T23:05:07.443Z,100794.84
2018-04-24T23:07:35.515Z,100771.77
2018-04-24T23:10:03.254Z,100779.20
2018-04-24T23:12:43.052Z,100781.24
2018-04-24T23:15:22.979Z,100769.34
2018-04-24T23:18:02.841Z,100765.59
2018-04-24T23:20:32.095Z,100776.61
2018-04-24T23:23:00.199Z,100770.13
2018-04-24T23:25:28.291Z,100754.94
2018-04-24T23:27:57.240Z,100754.77
2018-04-24T23:30:25.328Z,100748.35
2018-04-24T23:32:53.430Z,100737.68
2018-04-24T23:35:21.506Z,100746.17
2018-04-24T23:37:49.634Z,100736.17
2018-04-24T23:40:18.575Z,100741.66
2018-04-24T23:42:46.695Z,100746.89
2018-04-24T23:45:14.813Z,100749.22
2018-04-24T23:47:44.590Z,100746.45
2018-04-24T23:50:13.040Z,100743.60
2018-04-24T23:52:41.110Z,100728.28
2018-04-24T23:55:09.335Z,100747.15
2018-04-24T23:57:38.015Z,100746.84
